sensor_id;sensor_type;location;lat;lon;timestamp;temperature;humidity
1063;DHT22;520;50.932;6.962;2023-02-15T00:01:28;5.60;99.90
1063;DHT22;520;50.932;6.962;2023-02-15T00:04:06;5.60;99.90
1063;DHT22;520;50.932;6.962;2023-02-15T00:06:53;5.70;99.90
1063;DHT22;520;50.932;6.962;2023-02-15T00:09:48;5.70;99.90
1063;DHT22;520;50.932;6.962;2023-02-15T00:12:34;5.50;99.90
1063;DHT22;520;50.932;6.962;2023-02-15T00:15:13;5.40;99.90
1063;DHT22;520;50.932;6.962;2023-02-15T00:18:10;5.40;99.90
1063;DHT22;520;50.932;6.962;2023-02-15T00:21:15;5.40;99.90
1063;DHT22;520;50.932;6.962;2023-02-15T00:24:03;5.70;99.90
1063;DHT22;520;50.932;6.962;2023-02-15T00:26:47;5.80;99.90
1063;DHT22;520;50.932;6.962;2023-02-15T00:29:49;5.50;99.90
1063;DHT22;520;50.932;6.962;2023-02-15T00:32:40;5.40;99.90
1063;DHT22;520;50.932;6.962;2023-02-15T00:35:14;5.60;99.90
1063;DHT22;520;50.932;6.962;2023-02-15T00:37:47;5.60;99.90
1063;DHT22;520;50.932;6.962;2023-02-15T00:40:30;5.40;99.90
1063;DHT22;520;50.932;6.962;2023-02-15T00:47:01;5.50;99.90
1063;DHT22;520;50.932;6.962;2023-02-15T00:49:40;5.50;99.90
1063;DHT22;520;50.932;6.962;2023-02-15T00:52:29;5.30;99.90
1063;DHT22;520;50.932;6.962;2023-02-15T00:55:07;5.10;99.90
1063;DHT22;520;50.932;6.962;2023-02-15T00:57:50;5.20;99.90
1063;DHT22;520;50.932;6.962;2023-02-15T01:00:46;5.30;99.90
1063;DHT22;520;50.932;6.962;2023-02-15T01:07:04;5.10;99.90
1063;DHT22;520;50.932;6.962;2023-02-15T01:09:56;5.10;99.90
1063;DHT22;520;50.932;6.962;2023-02-15T01:12:45;5.20;99.90
1063;DHT22;520;50.932;6.962;2023-02-15T01:15:31;5.10;99.90
1063;DHT22;520;50.932;6.962;2023-02-15T01:18:15;5.20;99.90
1063;DHT22;520;50.932;6.962;2023-02-15T01:21:28;5.00;99.90
1063;DHT22;520;50.932;6.962;2023-02-15T01:24:20;5.10;99.90
1063;DHT22;520;50.932;6.962;2023-02-15T01:27:04;5.00;99.90
1063;DHT22;520;50.932;6.962;2023-02-15T01:29:45;4.90;99.90
1063;DHT22;520;50.932;6.962;2023-02-15T01:32:25;4.90;99.90
1063;DHT22;520;50.932;6.962;2023-02-15T01:35:12;5.00;99.90
1063;DHT22;520;50.932;6.962;2023-02-15T01:37:51;5.00;99.90
1063;DHT22;520;50.932;6.962;2023-02-15T01:43:11;5.10;99.90
1063;DHT22;520;50.932;6.962;2023-02-15T01:46:12;4.90;99.90
1063;DHT22;520;50.932;6.962;2023-02-15T01:49:07;5.00;99.90
1063;DHT22;520;50.932;6.962;2023-02-15T01:51:53;4.90;99.90
1063;DHT22;520;50.932;6.962;2023-02-15T01:54:41;5.00;99.90
1063;DHT22;520;50.932;6.962;2023-02-15T01:57:28;4.80;99.90
1063;DHT22;520;50.932;6.962;2023-02-15T02:00:13;4.80;99.90
1063;DHT22;520;50.932;6.962;2023-02-15T02:02:55;4.70;99.90
1063;DHT22;520;50.932;6.962;2023-02-15T02:05:34;4.70;99.90
1063;DHT22;520;50.932;6.962;2023-02-15T02:08:19;4.70;99.90
1063;DHT22;520;50.932;6.962;2023-02-15T02:10:56;4.70;99.90
1063;DHT22;520;50.932;6.962;2023-02-15T02:13:49;4.70;99.90
1063;DHT22;520;50.932;6.962;2023-02-15T02:26:00;4.50;99.90
1063;DHT22;520;50.932;6.962;2023-02-15T02:34:38;4.40;99.90
1063;DHT22;520;50.932;6.962;2023-02-15T02:40:18;4.60;99.90
1063;DHT22;520;50.932;6.962;2023-02-15T02:43:28;4.40;99.90
1063;DHT22;520;50.932;6.962;2023-02-15T02:46:00;4.40;99.90
1063;DHT22;520;50.932;6.962;2023-02-15T02:48:32;4.40;99.90
1063;DHT22;520;50.932;6.962;2023-02-15T02:50:59;4.40;99.90
1063;DHT22;520;50.932;6.962;2023-02-15T02:53:30;4.40;99.90
1063;DHT22;520;50.932;6.962;2023-02-15T02:56:17;4.20;99.90
1063;DHT22;520;50.932;6.962;2023-02-15T02:58:49;4.20;99.90
1063;DHT22;520;50.932;6.962;2023-02-15T03:04:23;4.10;99.90
1063;DHT22;520;50.932;6.962;2023-02-15T03:07:04;4.20;99.90
1063;DHT22;520;50.932;6.962;2023-02-15T03:09:38;4.20;99.90
1063;DHT22;520;50.932;6.962;2023-02-15T03:12:14;4.20;99.90
1063;DHT22;520;50.932;6.962;2023-02-15T03:14:44;4.10;99.90
1063;DHT22;520;50.932;6.962;2023-02-15T03:17:12;4.10;99.90
1063;DHT22;520;50.932;6.962;2023-02-15T03:19:45;4.10;99.90
1063;DHT22;520;50.932;6.962;2023-02-15T03:22:20;4.20;99.90
1063;DHT22;520;50.932;6.962;2023-02-15T03:24:58;4.10;99.90
1063;DHT22;520;50.932;6.962;2023-02-15T03:27:32;4.10;99.90
1063;DHT22;520;50.932;6.962;2023-02-15T03:30:03;4.10;99.90
1063;DHT22;520;50.932;6.962;2023-02-15T03:32:34;4.00;99.90
1063;DHT22;520;50.932;6.962;2023-02-15T03:35:03;4.00;99.90
1063;DHT22;520;50.932;6.962;2023-02-15T03:37:45;4.00;99.90
1063;DHT22;520;50.932;6.962;2023-02-15T03:40:34;4.00;99.90
1063;DHT22;520;50.932;6.962;2023-02-15T03:48:53;3.90;99.90
1063;DHT22;520;50.932;6.962;2023-02-15T03:51:26;4.00;99.90
1063;DHT22;520;50.932;6.962;2023-02-15T03:54:11;3.90;99.90
1063;DHT22;520;50.932;6.962;2023-02-15T03:56:41;3.90;99.90
1063;DHT22;520;50.932;6.962;2023-02-15T03:59:29;3.80;99.90
1063;DHT22;520;50.932;6.962;2023-02-15T04:02:36;3.90;99.90
1063;DHT22;520;50.932;6.962;2023-02-15T04:39:38;3.80;99.90
1063;DHT22;520;50.932;6.962;2023-02-15T05:16:36;4.00;99.90
1063;DHT22;520;50.932;6.962;2023-02-15T05:53:11;3.70;99.90
1063;DHT22;520;50.932;6.962;2023-02-15T06:19:37;3.70;99.90
1063;DHT22;520;50.932;6.962;2023-02-15T06:26:55;3.60;99.90
1063;DHT22;520;50.932;6.962;2023-02-15T06:38:15;3.50;99.90
1063;DHT22;520;50.932;6.962;2023-02-15T08:00:34;8.30;93.40
1063;DHT22;520;50.932;6.962;2023-02-15T16:33:16;11.80;90.20
1063;DHT22;520;50.932;6.962;2023-02-15T16:35:59;11.80;90.20
1063;DHT22;520;50.932;6.962;2023-02-15T16:46:39;11.50;90.60
1063;DHT22;520;50.932;6.962;2023-02-15T16:49:45;11.50;91.00
1063;DHT22;520;50.932;6.962;2023-02-15T16:53:27;11.30;90.90
1063;DHT22;520;50.932;6.962;2023-02-15T16:56:24;11.10;91.40
1063;DHT22;520;50.932;6.962;2023-02-15T17:02:36;10.90;91.80
1063;DHT22;520;50.932;6.962;2023-02-15T17:05:49;10.80;92.20
1063;DHT22;520;50.932;6.962;2023-02-15T17:09:17;11.00;92.00
1063;DHT22;520;50.932;6.962;2023-02-15T17:15:26;11.10;92.00
1063;DHT22;520;50.932;6.962;2023-02-15T17:19:08;11.20;91.70
1063;DHT22;520;50.932;6.962;2023-02-15T17:34:00;10.90;91.70
1063;DHT22;520;50.932;6.962;2023-02-15T17:37:25;10.90;92.00
1063;DHT22;520;50.932;6.962;2023-02-15T17:40:40;10.90;92.10
1063;DHT22;520;50.932;6.962;2023-02-15T17:47:38;10.90;92.10
1063;DHT22;520;50.932;6.962;2023-02-15T18:02:07;10.90;92.40
1063;DHT22;520;50.932;6.962;2023-02-15T18:05:04;11.00;92.20
1063;DHT22;520;50.932;6.962;2023-02-15T18:08:14;11.00;92.00
1063;DHT22;520;50.932;6.962;2023-02-15T18:11:12;10.70;92.30
1063;DHT22;520;50.932;6.962;2023-02-15T18:14:41;10.40;92.70
1063;DHT22;520;50.932;6.962;2023-02-15T18:17:50;10.50;93.30
1063;DHT22;520;50.932;6.962;2023-02-15T18:20:51;10.50;93.20
1063;DHT22;520;50.932;6.962;2023-02-15T18:23:33;10.70;93.30
1063;DHT22;520;50.932;6.962;2023-02-15T18:26:37;10.70;92.90
1063;DHT22;520;50.932;6.962;2023-02-15T18:29:48;10.60;93.10
1063;DHT22;520;50.932;6.962;2023-02-15T18:32:45;10.60;93.00
1063;DHT22;520;50.932;6.962;2023-02-15T18:35:36;10.60;93.10
1063;DHT22;520;50.932;6.962;2023-02-15T18:38:25;10.60;93.20
1063;DHT22;520;50.932;6.962;2023-02-15T18:44:13;10.30;93.70
1063;DHT22;520;50.932;6.962;2023-02-15T18:47:01;10.30;93.90
1063;DHT22;520;50.932;6.962;2023-02-15T18:49:51;10.30;93.90
1063;DHT22;520;50.932;6.962;2023-02-15T18:52:44;10.40;93.80
1063;DHT22;520;50.932;6.962;2023-02-15T18:55:47;10.50;93.40
1063;DHT22;520;50.932;6.962;2023-02-15T18:58:39;10.40;93.50
1063;DHT22;520;50.932;6.962;2023-02-15T19:05:29;10.20;93.70
1063;DHT22;520;50.932;6.962;2023-02-15T19:08:32;10.10;94.10
1063;DHT22;520;50.932;6.962;2023-02-15T19:11:46;10.10;93.90
1063;DHT22;520;50.932;6.962;2023-02-15T19:18:25;9.70;95.10
1063;DHT22;520;50.932;6.962;2023-02-15T19:21:17;9.60;95.40
1063;DHT22;520;50.932;6.962;2023-02-15T19:24:23;9.60;95.60
1063;DHT22;520;50.932;6.962;2023-02-15T19:30:24;9.70;95.40
1063;DHT22;520;50.932;6.962;2023-02-15T19:33:28;9.60;95.50
1063;DHT22;520;50.932;6.962;2023-02-15T19:36:16;10.00;94.60
1063;DHT22;520;50.932;6.962;2023-02-15T19:38:56;9.80;95.00
1063;DHT22;520;50.932;6.962;2023-02-15T19:41:40;9.90;95.30
1063;DHT22;520;50.932;6.962;2023-02-15T19:47:18;9.80;95.60
1063;DHT22;520;50.932;6.962;2023-02-15T19:54:24;9.80;95.80
1063;DHT22;520;50.932;6.962;2023-02-15T19:57:27;9.70;95.40
1063;DHT22;520;50.932;6.962;2023-02-15T20:00:23;9.50;95.40
1063;DHT22;520;50.932;6.962;2023-02-15T20:03:19;9.60;95.70
1063;DHT22;520;50.932;6.962;2023-02-15T20:06:27;9.40;95.70
1063;DHT22;520;50.932;6.962;2023-02-15T20:09:45;9.60;96.10
1063;DHT22;520;50.932;6.962;2023-02-15T20:12:50;9.40;95.80
1063;DHT22;520;50.932;6.962;2023-02-15T20:22:45;9.20;95.70
1063;DHT22;520;50.932;6.962;2023-02-15T20:25:27;9.20;96.00
1063;DHT22;520;50.932;6.962;2023-02-15T20:28:26;9.20;96.10
1063;DHT22;520;50.932;6.962;2023-02-15T20:31:42;9.20;96.00
1063;DHT22;520;50.932;6.962;2023-02-15T20:34:31;9.00;96.20
1063;DHT22;520;50.932;6.962;2023-02-15T20:37:47;9.00;96.20
1063;DHT22;520;50.932;6.962;2023-02-15T20:40:58;9.00;96.20
1063;DHT22;520;50.932;6.962;2023-02-15T20:44:23;8.90;96.40
1063;DHT22;520;50.932;6.962;2023-02-15T20:46:55;9.00;96.60
1063;DHT22;520;50.932;6.962;2023-02-15T20:49:41;8.90;96.50
1063;DHT22;520;50.932;6.962;2023-02-15T20:52:41;8.90;96.60
1063;DHT22;520;50.932;6.962;2023-02-15T20:55:26;8.90;96.70
1063;DHT22;520;50.932;6.962;2023-02-15T20:58:38;8.90;96.60
1063;DHT22;520;50.932;6.962;2023-02-15T21:01:32;8.90;96.90
1063;DHT22;520;50.932;6.962;2023-02-15T21:04:07;8.70;96.90
1063;DHT22;520;50.932;6.962;2023-02-15T21:07:00;8.80;97.00
1063;DHT22;520;50.932;6.962;2023-02-15T21:09:57;9.00;96.60
1063;DHT22;520;50.932;6.962;2023-02-15T21:12:44;9.10;96.20
1063;DHT22;520;50.932;6.962;2023-02-15T21:15:36;9.00;96.10
1063;DHT22;520;50.932;6.962;2023-02-15T21:18:29;8.90;96.10
1063;DHT22;520;50.932;6.962;2023-02-15T21:23:55;8.80;96.40
1063;DHT22;520;50.932;6.962;2023-02-15T21:26:32;8.70;96.70
1063;DHT22;520;50.932;6.962;2023-02-15T21:29:04;8.50;96.90
1063;DHT22;520;50.932;6.962;2023-02-15T21:35:07;8.70;96.90
1063;DHT22;520;50.932;6.962;2023-02-15T21:38:29;8.50;97.10
1063;DHT22;520;50.932;6.962;2023-02-15T21:41:52;8.70;97.50
1063;DHT22;520;50.932;6.962;2023-02-15T21:44:55;8.70;97.20
1063;DHT22;520;50.932;6.962;2023-02-15T21:47:46;8.70;97.20
1063;DHT22;520;50.932;6.962;2023-02-15T21:50:40;8.70;97.30
1063;DHT22;520;50.932;6.962;2023-02-15T21:53:30;8.60;97.40
1063;DHT22;520;50.932;6.962;2023-02-15T21:56:23;8.80;97.50
1063;DHT22;520;50.932;6.962;2023-02-15T21:59:28;8.90;97.20
1063;DHT22;520;50.932;6.962;2023-02-15T22:02:32;8.80;96.80
1063;DHT22;520;50.932;6.962;2023-02-15T22:05:20;8.80;96.80
1063;DHT22;520;50.932;6.962;2023-02-15T22:08:04;8.70;97.00
1063;DHT22;520;50.932;6.962;2023-02-15T22:10:52;8.40;97.50
1063;DHT22;520;50.932;6.962;2023-02-15T22:13:30;8.40;97.50
1063;DHT22;520;50.932;6.962;2023-02-15T22:16:18;8.30;98.00
1063;DHT22;520;50.932;6.962;2023-02-15T22:19:20;8.20;97.90
1063;DHT22;520;50.932;6.962;2023-02-15T22:21:53;8.20;98.00
1063;DHT22;520;50.932;6.962;2023-02-15T22:24:25;8.40;98.00
1063;DHT22;520;50.932;6.962;2023-02-15T22:27:24;8.40;97.50
1063;DHT22;520;50.932;6.962;2023-02-15T22:30:44;8.50;97.20
1063;DHT22;520;50.932;6.962;2023-02-15T22:33:01;8.60;96.90
1063;DHT22;520;50.932;6.962;2023-02-15T22:35:33;8.60;96.80
1063;DHT22;520;50.932;6.962;2023-02-15T22:38:08;8.40;97.00
1063;DHT22;520;50.932;6.962;2023-02-15T22:40:43;8.40;97.20
1063;DHT22;520;50.932;6.962;2023-02-15T22:43:37;8.30;97.20
1063;DHT22;520;50.932;6.962;2023-02-15T22:46:34;8.30;97.40
1063;DHT22;520;50.932;6.962;2023-02-15T22:51:48;8.30;97.60
1063;DHT22;520;50.932;6.962;2023-02-15T22:54:18;8.30;97.50
1063;DHT22;520;50.932;6.962;2023-02-15T22:56:59;8.10;97.50
1063;DHT22;520;50.932;6.962;2023-02-15T22:59:33;8.20;97.40
1063;DHT22;520;50.932;6.962;2023-02-15T23:02:13;8.20;97.20
1063;DHT22;520;50.932;6.962;2023-02-15T23:04:44;8.10;97.30
1063;DHT22;520;50.932;6.962;2023-02-15T23:07:21;8.00;97.60
1063;DHT22;520;50.932;6.962;2023-02-15T23:09:53;8.00;97.70
1063;DHT22;520;50.932;6.962;2023-02-15T23:12:36;8.00;97.70
1063;DHT22;520;50.932;6.962;2023-02-15T23:15:33;8.00;98.00
1063;DHT22;520;50.932;6.962;2023-02-15T23:21:05;7.90;98.20
1063;DHT22;520;50.932;6.962;2023-02-15T23:23:41;7.80;98.40
1063;DHT22;520;50.932;6.962;2023-02-15T23:26:30;7.90;98.70
1063;DHT22;520;50.932;6.962;2023-02-15T23:29:19;8.20;98.90
1063;DHT22;520;50.932;6.962;2023-02-15T23:32:03;8.10;98.70
1063;DHT22;520;50.932;6.962;2023-02-15T23:34:37;8.10;98.90
1063;DHT22;520;50.932;6.962;2023-02-15T23:37:19;7.90;98.90
1063;DHT22;520;50.932;6.962;2023-02-15T23:39:54;8.00;98.70
1063;DHT22;520;50.932;6.962;2023-02-15T23:42:49;8.10;98.40
1063;DHT22;520;50.932;6.962;2023-02-15T23:45:29;8.10;98.00
1063;DHT22;520;50.932;6.962;2023-02-15T23:48:11;8.00;98.00
1063;DHT22;520;50.932;6.962;2023-02-15T23:51:18;7.70;98.20
1063;DHT22;520;50.932;6.962;2023-02-15T23:53:45;7.60;98.80
1063;DHT22;520;50.932;6.962;2023-02-15T23:59:03;7.60;98.80
